Joyce Maxine — WDC9281 — position and weather

sailwx.info

Track history (hours):
 
Tides and Currents Weather Stations Pressure Air Temp Water Temp Dewpoint Dewpoint Depression Visibility Wind Speed Wind Dir Waves Ship Positions

Joyce Maxine

Owner: LeBeouf Bros. Towing, L.L.C., Houma, LA. More information available from US FCC via Universal Licensing System and Coast Guard Vessel Documentation Center.

Last reported at 2018-Feb-23 01:52 UTC. Time now 2018-Feb-23 02:48 UTC.
Position N 29°50' W 092°18'.

Length 22 m; draft 3 m.

Type: Towing. MMSI: 367100060.

Date/timePositionNaut miles runAvg speedWind from/ knotsBaromVisibWave heightAir tempDewpointWater temp
2018-Feb-23 01:52N 29°50' W 092°18'0 0.0
2018-Feb-23 01:30N 29°50' W 092°18'1 2.8
2018-Feb-23 01:00N 29°49' W 092°17'4 7.2
2018-Feb-23 00:30N 29°48' W 092°13'2 3.3
2018-Feb-22 23:58N 29°47' W 092°11'0 0.0
2018-Feb-22 23:28N 29°47' W 092°11'1 2.6
2018-Feb-22 23:00N 29°47' W 092°10'4 7.2
2018-Feb-22 22:30N 29°48' W 092°06'4 7.0
2018-Feb-22 21:59N 29°49' W 092°02'64 3.1
2018-Feb-22 01:08N 29°32' W 090°51'1 7.4
2018-Feb-22 01:00N 29°32' W 090°50'4 7.4
2018-Feb-22 00:30N 29°33' W 090°45'3 5.6
2018-Feb-22 00:00N 29°35' W 090°43'2 4.9
2018-Feb-21 23:30N 29°37' W 090°42'3 5.4
2018-Feb-21 23:00N 29°36' W 090°39'3 6.0
2018-Feb-21 22:30N 29°35' W 090°36'0 0.6
2018-Feb-21 22:00N 29°35' W 090°36'0 0.0
2018-Feb-21 21:30N 29°35' W 090°36'0 0.0
2018-Feb-21 21:00N 29°35' W 090°36'1 3.0
2018-Feb-21 20:30N 29°35' W 090°38'3 5.7
2018-Feb-21 20:00N 29°36' W 090°40'2 3.8
2018-Feb-21 19:30N 29°36' W 090°43'1 1.9
2018-Feb-21 19:00N 29°35' W 090°43'0 0.0
2018-Feb-21 18:30N 29°35' W 090°43'0 0.0
2018-Feb-21 18:00N 29°35' W 090°43'1 1.2
2018-Feb-21 17:30N 29°35' W 090°43'2 3.7
2018-Feb-21 17:00N 29°36' W 090°41'3 6.6
2018-Feb-21 16:30N 29°35' W 090°37'2 3.0
2018-Feb-21 15:59N 29°34' W 090°36'0 0.1
2018-Feb-21 15:26N 29°34' W 090°36'1 1.9
2018-Feb-21 15:00N 29°35' W 090°36'0 0.7
2018-Feb-21 14:30N 29°35' W 090°36'1 3.0
2018-Feb-21 14:00N 29°35' W 090°38'3 5.1
2018-Feb-21 13:30N 29°36' W 090°40'2 4.3
2018-Feb-21 13:00N 29°37' W 090°42'2 4.2
2018-Feb-21 12:30N 29°35' W 090°43'2 4.7
2018-Feb-21 12:00N 29°33' W 090°45'3 5.7
2018-Feb-21 11:30N 29°32' W 090°48'  
2018-Feb-19 01:10N 29°33' W 090°54'3 6.1
2018-Feb-19 00:37N 29°32' W 090°51'1 6.9
2018-Feb-19 00:30N 29°32' W 090°50'3 6.9
2018-Feb-19 00:00N 29°32' W 090°46'3 5.7
2018-Feb-18 23:30N 29°34' W 090°43'3 5.7
2018-Feb-18 23:00N 29°37' W 090°42'1 1.1
2018-Feb-18 22:30N 29°37' W 090°42'2 3.3
2018-Feb-18 22:00N 29°36' W 090°40'3 6.3
2018-Feb-18 21:30N 29°35' W 090°37'1 2.0
2018-Feb-18 21:00N 29°35' W 090°36'0 0.8
2018-Feb-18 20:30N 29°34' W 090°36'0 0.0
2018-Feb-18 20:00N 29°34' W 090°36'0 0.0
2018-Feb-18 19:30N 29°34' W 090°36'0 0.0
2018-Feb-18 18:58N 29°34' W 090°36'0 0.0
2018-Feb-18 18:29N 29°34' W 090°36'0 0.0
2018-Feb-18 18:00N 29°34' W 090°36'0 0.0
2018-Feb-18 17:29N 29°34' W 090°36'0 0.1
2018-Feb-18 17:00N 29°34' W 090°36'0 0.7
2018-Feb-18 16:30N 29°35' W 090°35'4 6.8
2018-Feb-18 15:56N 29°34' W 090°31'  
Track history (hours):
 
Tides and Currents Weather Stations Pressure Air Temp Water Temp Dewpoint Dewpoint Depression Visibility Wind Speed Wind Dir Waves Ship Positions

Joyce Maxine

Owner: LeBeouf Bros. Towing, L.L.C., Houma, LA. More information available from US FCC via Universal Licensing System and Coast Guard Vessel Documentation Center.

Last reported at 2018-Feb-23 01:52 UTC. Time now 2018-Feb-23 02:48 UTC.
Position N 29°50' W 092°18'.

Length 22 m; draft 3 m.

Type: Towing. MMSI: 367100060.

Date/timePositionNaut miles runAvg speedWind from/ knotsBaromVisibWave heightAir tempDewpointWater temp
2018-Feb-23 01:52N 29°50' W 092°18'0 0.0
2018-Feb-23 01:30N 29°50' W 092°18'1 2.8
2018-Feb-23 01:00N 29°49' W 092°17'4 7.2
2018-Feb-23 00:30N 29°48' W 092°13'2 3.3
2018-Feb-22 23:58N 29°47' W 092°11'0 0.0
2018-Feb-22 23:28N 29°47' W 092°11'1 2.6
2018-Feb-22 23:00N 29°47' W 092°10'4 7.2
2018-Feb-22 22:30N 29°48' W 092°06'4 7.0
2018-Feb-22 21:59N 29°49' W 092°02'64 3.1
2018-Feb-22 01:08N 29°32' W 090°51'1 7.4
2018-Feb-22 01:00N 29°32' W 090°50'4 7.4
2018-Feb-22 00:30N 29°33' W 090°45'3 5.6
2018-Feb-22 00:00N 29°35' W 090°43'2 4.9
2018-Feb-21 23:30N 29°37' W 090°42'3 5.4
2018-Feb-21 23:00N 29°36' W 090°39'3 6.0
2018-Feb-21 22:30N 29°35' W 090°36'0 0.6
2018-Feb-21 22:00N 29°35' W 090°36'0 0.0
2018-Feb-21 21:30N 29°35' W 090°36'0 0.0
2018-Feb-21 21:00N 29°35' W 090°36'1 3.0
2018-Feb-21 20:30N 29°35' W 090°38'3 5.7
2018-Feb-21 20:00N 29°36' W 090°40'2 3.8
2018-Feb-21 19:30N 29°36' W 090°43'1 1.9
2018-Feb-21 19:00N 29°35' W 090°43'0 0.0
2018-Feb-21 18:30N 29°35' W 090°43'0 0.0
2018-Feb-21 18:00N 29°35' W 090°43'1 1.2
2018-Feb-21 17:30N 29°35' W 090°43'2 3.7
2018-Feb-21 17:00N 29°36' W 090°41'3 6.6
2018-Feb-21 16:30N 29°35' W 090°37'2 3.0
2018-Feb-21 15:59N 29°34' W 090°36'0 0.1
2018-Feb-21 15:26N 29°34' W 090°36'1 1.9
2018-Feb-21 15:00N 29°35' W 090°36'0 0.7
2018-Feb-21 14:30N 29°35' W 090°36'1 3.0
2018-Feb-21 14:00N 29°35' W 090°38'3 5.1
2018-Feb-21 13:30N 29°36' W 090°40'2 4.3
2018-Feb-21 13:00N 29°37' W 090°42'2 4.2
2018-Feb-21 12:30N 29°35' W 090°43'2 4.7
2018-Feb-21 12:00N 29°33' W 090°45'3 5.7
2018-Feb-21 11:30N 29°32' W 090°48'  
2018-Feb-19 01:10N 29°33' W 090°54'3 6.1
2018-Feb-19 00:37N 29°32' W 090°51'1 6.9
2018-Feb-19 00:30N 29°32' W 090°50'3 6.9
2018-Feb-19 00:00N 29°32' W 090°46'3 5.7
2018-Feb-18 23:30N 29°34' W 090°43'3 5.7
2018-Feb-18 23:00N 29°37' W 090°42'1 1.1
2018-Feb-18 22:30N 29°37' W 090°42'2 3.3
2018-Feb-18 22:00N 29°36' W 090°40'3 6.3
2018-Feb-18 21:30N 29°35' W 090°37'1 2.0
2018-Feb-18 21:00N 29°35' W 090°36'0 0.8
2018-Feb-18 20:30N 29°34' W 090°36'0 0.0
2018-Feb-18 20:00N 29°34' W 090°36'0 0.0
2018-Feb-18 19:30N 29°34' W 090°36'0 0.0
2018-Feb-18 18:58N 29°34' W 090°36'0 0.0
2018-Feb-18 18:29N 29°34' W 090°36'0 0.0
2018-Feb-18 18:00N 29°34' W 090°36'0 0.0
2018-Feb-18 17:29N 29°34' W 090°36'0 0.1
2018-Feb-18 17:00N 29°34' W 090°36'0 0.7
2018-Feb-18 16:30N 29°35' W 090°35'4 6.8
2018-Feb-18 15:56N 29°34' W 090°31'  

Dump ship's entire track history